Terminal Aerodrome Forecast
Issued by NWS

Home | Current Version | Previous Version | Text Only | Print | Product List | Glossary On
Versions: 1 2 3 4 5 6 7 8 9 10 11 12 13 14 15 16 17
000
FTUS43 KDTX 220520
TAFDET
TAF
KDET 220520Z 2206/2306 16005KT P6SM -SHRA SCT110 BKN200
     FM220800 12004KT 6SM -SHRA BKN045 OVC100
      TEMPO 2209/2212 4SM -TSRA SCT022CB BKN040
     FM221400 17008KT 6SM BR SCT022 BKN040 OVC150
     FM221900 21008KT P6SM BKN045
     FM230000 11005KT P6SM SCT050=

USA.gov is the U.S. government's official web portal to all federal, state and local government web resources and services.